Terminal Aerodrome Forecast
Issued by NWS

Home | Current Version | Previous Version | Text Only | Print | Product List | Glossary On
Versions: 1 2 3 4 5 6 7 8 9 10 11 12 13 14 15
485
FTUS46 KLOX 210752 AAA
TAFPMD
TAF AMD
KPMD 210752Z 2108/2206 22009KT P6SM SKC
     FM211400 23005KT P6SM SKC
     FM211800 27006KT P6SM SKC
     FM212000 26011KT P6SM SKC
     FM212200 26017G27KT P6SM SKC
     FM220200 25012KT P6SM SKC=

USA.gov is the U.S. government's official web portal to all federal, state and local government web resources and services.